KARV

Lakeland / Noble F Lee Memorial Field Airport

Minocqua-Woodruff, Wisconsin, USA
METAR KARV 151915Z AUTO 35016G20KT 10SM BKN018 M08/M12 A2982 RMK AO2 T10851123
Observed Flight Rules
Feb-15 @ 19:15 UTC (11 minutes ago) Marginal Visual Flight Rules
Wind Visibility Clouds
350° at 16 knots
 Gusting to 20 knots
10 miles
  • Broken at 1,800' AGL
Temperatures Readings
Current -9°C / 16°F
Dewpoint -12°C / 10°F
Humidity 79%
Altimeter 29.82" Hg
Pressure 1009.82 hPa
Elevation 496
METAR KARV 151915Z AUTO 35016G20KT 10SM BKN018 M08/M12 A2982 RMK AO2 T10851123
Observed Flight Rules
Feb-15 @ 19:15 UTC
(11 minutes ago)
MVFR
Wind Visibility
350° at 16 knots
 Gusting to 20 knots
10 miles
Clouds
  • Broken at 1,800' AGL
Temperature Dewpoint
-9°C / 16°F -12°C / 10°F
Humidity Altimeter Pressure
79% 29.82" Hg 1009.82 hPa